Gothenburg, NE

6:13 PM CDT on July 07, 2015 (GMT -0500)
APRSWXNET | | Change Station
CLOSE
Current Station
Personal Weather Station
Location: Brady, NE
Elevation: 2588 ft
Nearby Weather Stations

Elev 2588 ft 41.02 °N, 100.37 °W | Updated 28 minutes ago

Clear
Clear
72 °F
Feels Like 77 °F
N
2
Wind Variable Wind from North
Gusts 10.0 mph

Today
High -- | Low -- °F
--% Chance of Precip.
Yesterday
High -- | Low -- °F
Precip. -- in
6:15 AM 9:15 PM
Waning Gibbous, 60% visible
Pressure 30.07 in
Visibility 10.0 miles
Clouds Overcast 7000 ft
Heat Index 77 °F
Dew Point 51 °F
Humidity 48%
Rainfall in
Snow Depth Not available.
UV 1 out of 12
Pollen 4.30 out of 12
Air Quality Not available.
Flu Activity Not available.
METAR KLBF 072253Z AUTO 11007KT 10SM OVC070 23/11 A3011 RMK AO2 SLP183 T02280106

More Conditions Fewer Conditions

Pressure 30.07 in
Visibility 10.0 miles
Clouds Overcast 7000 ft
Heat Index 77 °F
Dew Point 51 °F
Humidity 48%
Rainfall in
Snow Depth Not available.
UV 1 out of 12
Pollen 4.30 out of 12
Air Quality Not available.
Flu Activity Not available.
METAR KLBF 072253Z AUTO 11007KT 10SM OVC070 23/11 A3011 RMK AO2 SLP183 T02280106

More Conditions Fewer Conditions

10-Day Weather Forecast

×

Almanac

Astronomy

Jul. 07, 2015 Rise Set
Actual Time
Civil Twilight
Nautical Twilight
Astronomical Twilight
Moon
Length of Visible Light
Length of Day
Tomorrow will be .
, % of the Moon is Illuminated

Today's Extremes

State Highs State Lows

Community

WunderPhotos

Upload Photos

1,835,951 photos uploaded!

WunderBlogs® & News

Nearby

Air Quality

  Air Quality AQ Index Pollutant
Not available.

Snow Depth

Station Depth Elevation

Earthquake Activity

City Distance Mag. Time & Date
Minimum magnitude displayed is 2.5.

Coastal Water Temperatures

Place Temperature

Stations

Nearby Weather Stations

Station Location Temp. Windchill Dew Point Humidity Wind Precip. Elev Updated Type